createdAt,value
2023-01-25T00:00:54.901Z,59.87
2023-01-25T00:03:24.444Z,59.97
2023-01-25T00:06:00.100Z,60.62
2023-01-25T00:08:28.149Z,60.18
2023-01-25T00:10:58.475Z,60.28
2023-01-25T00:13:27.068Z,60.49
2023-01-25T00:15:55.321Z,60.37
2023-01-25T00:18:24.800Z,60.95
2023-01-25T00:20:53.245Z,61.48
2023-01-25T00:23:21.297Z,62.22
2023-01-25T00:25:49.433Z,62.89
2023-01-25T00:28:17.404Z,63.09
2023-01-25T00:30:45.583Z,61.76
2023-01-25T00:36:30.793Z,62.75
2023-01-25T00:38:59.818Z,61.70
2023-01-25T00:41:27.950Z,61.61
2023-01-25T00:43:55.983Z,61.78
2023-01-25T00:46:24.787Z,62.02
2023-01-25T00:48:54.622Z,62.58
2023-01-25T00:51:24.638Z,62.83
2023-01-25T00:53:53.208Z,63.41
2023-01-25T00:56:21.311Z,63.50
2023-01-25T00:58:49.471Z,62.88
2023-01-25T01:01:19.766Z,62.60
2023-01-25T01:03:47.701Z,62.38
2023-01-25T01:06:15.598Z,62.53
2023-01-25T01:08:44.857Z,63.09
2023-01-25T01:11:14.136Z,62.87
2023-01-25T01:13:42.675Z,62.51
2023-01-25T01:16:13.910Z,60.84
2023-01-25T01:18:44.500Z,60.74
2023-01-25T01:21:13.977Z,61.09
2023-01-25T01:23:42.376Z,61.55
2023-01-25T01:26:36.419Z,61.55
2023-01-25T01:29:08.308Z,61.61
2023-01-25T01:31:38.573Z,62.53
2023-01-25T01:34:14.309Z,61.67
2023-01-25T01:36:42.426Z,61.55
2023-01-25T01:39:10.463Z,62.07
2023-01-25T01:41:40.391Z,61.86
2023-01-25T01:44:17.723Z,62.30
2023-01-25T01:46:53.846Z,62.29
2023-01-25T01:49:27.629Z,62.06
2023-01-25T01:52:04.281Z,62.52
2023-01-25T01:54:41.679Z,63.34
2023-01-25T01:57:14.418Z,63.07
2023-01-25T01:59:47.592Z,62.75
2023-01-25T02:02:16.129Z,62.58
2023-01-25T02:04:48.315Z,62.71
2023-01-25T02:07:20.767Z,62.92
2023-01-25T02:09:51.736Z,61.70
2023-01-25T02:12:24.167Z,62.28
2023-01-25T02:14:53.860Z,62.28
2023-01-25T02:17:27.665Z,62.49
2023-01-25T02:20:05.408Z,62.88
2023-01-25T02:22:41.920Z,62.89
2023-01-25T02:25:14.370Z,63.12
2023-01-25T02:27:47.090Z,63.39
2023-01-25T02:30:15.596Z,64.17
2023-01-25T02:32:45.042Z,64.32
2023-01-25T02:35:21.039Z,64.37
2023-01-25T02:37:51.512Z,64.63
2023-01-25T02:40:21.750Z,64.59
2023-01-25T02:42:49.765Z,65.02
2023-01-25T02:45:22.844Z,64.73
2023-01-25T02:47:50.992Z,64.84
2023-01-25T02:50:19.945Z,65.20
2023-01-25T02:52:47.992Z,65.15
2023-01-25T02:55:16.501Z,64.77
2023-01-25T02:57:47.485Z,64.94
2023-01-25T03:00:17.592Z,65.09
2023-01-25T03:02:46.552Z,65.38
2023-01-25T03:05:14.802Z,64.58
2023-01-25T03:07:42.864Z,64.84
2023-01-25T03:10:13.000Z,64.96
2023-01-25T03:12:41.844Z,64.65
2023-01-25T03:15:11.837Z,64.62
2023-01-25T03:17:40.083Z,64.56
2023-01-25T03:20:08.901Z,63.82
2023-01-25T03:22:36.938Z,63.85
2023-01-25T03:25:07.259Z,64.35
2023-01-25T03:27:38.184Z,64.14
2023-01-25T03:30:14.136Z,64.33
2023-01-25T03:32:42.930Z,64.40
2023-01-25T03:35:16.189Z,64.15
2023-01-25T03:37:44.856Z,64.77
2023-01-25T03:40:14.433Z,65.11
2023-01-25T03:42:46.360Z,64.32
2023-01-25T03:45:16.704Z,64.24
2023-01-25T03:47:44.965Z,64.75
2023-01-25T03:50:13.931Z,64.22
2023-01-25T03:52:45.573Z,64.43
2023-01-25T03:55:14.687Z,64.75
2023-01-25T03:57:45.221Z,64.71
2023-01-25T04:00:15.925Z,65.14
2023-01-25T04:02:46.688Z,64.87
2023-01-25T04:05:18.334Z,64.00
2023-01-25T04:07:46.797Z,64.75
2023-01-25T04:10:17.494Z,65.94
2023-01-25T04:12:47.876Z,64.98
2023-01-25T04:15:18.334Z,64.60
2023-01-25T04:17:46.719Z,65.08
2023-01-25T04:20:25.148Z,66.50
2023-01-25T04:22:54.302Z,66.74
2023-01-25T04:25:26.968Z,66.58
2023-01-25T04:27:55.198Z,66.54
2023-01-25T04:30:24.859Z,66.04
2023-01-25T04:32:53.764Z,65.44
2023-01-25T04:35:28.205Z,65.16
2023-01-25T04:37:56.995Z,65.13
2023-01-25T04:40:30.040Z,64.89
2023-01-25T04:42:58.467Z,64.46
2023-01-25T04:45:28.401Z,64.42
2023-01-25T04:47:58.283Z,64.32
2023-01-25T04:50:27.083Z,64.72
2023-01-25T04:52:55.688Z,64.82
2023-01-25T04:55:24.997Z,64.80
2023-01-25T04:57:57.776Z,64.60
2023-01-25T05:00:25.825Z,64.40
2023-01-25T05:02:55.514Z,64.67
2023-01-25T05:05:23.900Z,64.55
2023-01-25T05:07:54.570Z,64.89
2023-01-25T05:10:22.971Z,64.15
2023-01-25T05:13:09.676Z,63.45
2023-01-25T05:15:38.093Z,63.00
2023-01-25T05:18:07.709Z,63.74
2023-01-25T05:20:36.147Z,64.67
2023-01-25T05:23:04.432Z,64.83
2023-01-25T05:25:50.878Z,64.96
2023-01-25T05:28:26.379Z,64.71
2023-01-25T05:31:14.608Z,64.27
2023-01-25T05:33:44.582Z,64.47
2023-01-25T05:36:13.042Z,64.09
2023-01-25T05:38:41.214Z,64.45
2023-01-25T05:41:11.674Z,64.51
2023-01-25T05:43:39.820Z,64.65
2023-01-25T05:46:09.789Z,64.47
2023-01-25T05:48:38.030Z,64.51
2023-01-25T05:51:07.784Z,64.97
2023-01-25T05:53:36.202Z,65.19
2023-01-25T05:56:08.309Z,64.92
2023-01-25T05:58:36.531Z,65.54
2023-01-25T06:01:06.382Z,65.46
2023-01-25T06:03:44.081Z,65.65
2023-01-25T06:06:13.961Z,66.37
2023-01-25T06:08:43.971Z,66.33
2023-01-25T06:11:13.282Z,67.03
2023-01-25T06:13:45.727Z,66.94
2023-01-25T06:16:14.054Z,66.73
2023-01-25T06:18:42.593Z,66.53
2023-01-25T06:21:24.073Z,66.01
2023-01-25T06:23:52.107Z,65.75
2023-01-25T06:26:20.109Z,66.25
2023-01-25T06:28:48.100Z,66.19
2023-01-25T06:31:19.258Z,65.81
2023-01-25T06:33:50.679Z,65.49
2023-01-25T06:36:23.675Z,65.57
2023-01-25T06:38:53.013Z,65.02
2023-01-25T06:41:21.400Z,65.96
2023-01-25T06:43:51.725Z,66.27
2023-01-25T06:46:20.901Z,65.82
2023-01-25T06:48:49.148Z,65.10
2023-01-25T06:51:17.752Z,66.11
2023-01-25T06:53:48.487Z,66.27
2023-01-25T06:56:18.625Z,66.69
2023-01-25T06:58:47.424Z,67.09
2023-01-25T07:01:19.778Z,67.35
2023-01-25T07:03:49.709Z,67.25
2023-01-25T07:06:18.045Z,66.60
2023-01-25T07:08:47.760Z,65.78
2023-01-25T07:11:18.843Z,65.73
2023-01-25T07:13:48.338Z,65.09
2023-01-25T07:16:19.118Z,65.80
2023-01-25T07:18:47.508Z,66.49
2023-01-25T07:21:17.691Z,65.94
2023-01-25T07:23:47.171Z,65.42
2023-01-25T07:26:18.571Z,65.16
2023-01-25T07:28:47.311Z,66.26
2023-01-25T07:31:16.775Z,66.27
2023-01-25T07:33:45.607Z,66.23
2023-01-25T07:36:14.320Z,64.34
2023-01-25T07:38:42.494Z,65.13
2023-01-25T07:41:13.098Z,65.08
2023-01-25T07:43:41.234Z,66.29
2023-01-25T07:46:14.683Z,67.34
2023-01-25T07:48:48.139Z,67.09
2023-01-25T07:51:23.829Z,66.83
2023-01-25T07:53:54.161Z,67.21
2023-01-25T07:56:25.824Z,67.04
2023-01-25T07:58:55.107Z,66.38
2023-01-25T08:01:25.626Z,66.98
2023-01-25T08:03:57.785Z,67.54
2023-01-25T08:06:27.587Z,67.11
2023-01-25T08:08:56.493Z,66.37
2023-01-25T08:11:29.212Z,66.11
2023-01-25T08:13:57.492Z,66.04
2023-01-25T08:16:27.551Z,66.42
2023-01-25T08:18:58.498Z,66.85
2023-01-25T08:21:30.106Z,67.68
2023-01-25T08:23:59.743Z,67.53
2023-01-25T08:26:29.965Z,67.51
2023-01-25T08:28:58.376Z,67.42
2023-01-25T08:31:28.748Z,67.85
2023-01-25T08:33:58.276Z,68.14
2023-01-25T08:36:28.191Z,68.09
2023-01-25T08:38:58.907Z,68.63
2023-01-25T08:41:29.747Z,68.07
2023-01-25T08:43:58.524Z,67.56
2023-01-25T08:46:30.536Z,67.64
2023-01-25T08:49:02.552Z,67.53
2023-01-25T08:51:33.011Z,67.55
2023-01-25T08:54:04.978Z,67.94
2023-01-25T08:56:34.575Z,68.10
2023-01-25T08:59:02.833Z,68.46
2023-01-25T09:01:30.889Z,68.01
2023-01-25T09:03:59.414Z,67.57
2023-01-25T09:06:28.408Z,67.99
2023-01-25T09:08:56.752Z,67.48
2023-01-25T09:11:25.058Z,67.61
2023-01-25T09:13:54.823Z,67.75
2023-01-25T09:16:29.428Z,67.64
2023-01-25T09:18:59.111Z,67.70
2023-01-25T09:21:27.503Z,68.12
2023-01-25T09:24:11.981Z,67.79
2023-01-25T09:26:46.063Z,67.30
2023-01-25T09:29:19.507Z,67.64
2023-01-25T09:31:48.005Z,67.51
2023-01-25T09:34:28.198Z,67.94
2023-01-25T09:36:56.248Z,68.50
2023-01-25T09:39:27.928Z,69.11
2023-01-25T09:42:24.276Z,69.74
2023-01-25T09:45:19.560Z,70.28
2023-01-25T09:47:55.816Z,70.35
2023-01-25T09:50:34.200Z,70.10
2023-01-25T09:53:22.686Z,70.18
2023-01-25T09:55:54.585Z,69.51
2023-01-25T09:58:29.135Z,69.73
2023-01-25T10:01:14.491Z,70.43
2023-01-25T10:03:49.233Z,70.17
2023-01-25T10:06:20.479Z,70.42
2023-01-25T10:08:56.863Z,69.90
2023-01-25T10:11:28.195Z,68.93
2023-01-25T10:13:57.548Z,69.02
2023-01-25T10:16:33.203Z,69.49
2023-01-25T10:19:19.796Z,68.77
2023-01-25T10:21:57.502Z,67.75
2023-01-25T10:24:38.349Z,67.33
2023-01-25T10:27:20.420Z,67.42
2023-01-25T10:29:49.663Z,67.29
2023-01-25T10:32:28.036Z,67.83
2023-01-25T10:34:59.188Z,67.68
2023-01-25T10:37:30.059Z,67.70
2023-01-25T10:40:02.311Z,68.10
2023-01-25T10:42:38.203Z,68.68
2023-01-25T10:45:13.511Z,68.67
2023-01-25T10:47:47.867Z,69.21
2023-01-25T10:50:45.245Z,69.77
2023-01-25T10:53:45.012Z,69.60
2023-01-25T10:56:22.728Z,69.56
2023-01-25T10:58:54.406Z,69.53
2023-01-25T11:01:28.757Z,69.66
2023-01-25T11:03:59.384Z,69.72
2023-01-25T11:06:35.743Z,69.31
2023-01-25T11:09:24.286Z,69.64
2023-01-25T11:11:58.182Z,70.36
2023-01-25T11:14:28.339Z,70.40
2023-01-25T11:16:58.329Z,70.40
2023-01-25T11:19:29.758Z,71.39
2023-01-25T11:21:58.949Z,71.70
2023-01-25T11:24:29.265Z,71.94
2023-01-25T11:27:18.600Z,73.05
2023-01-25T11:29:47.960Z,72.61
2023-01-25T11:32:22.627Z,72.34
2023-01-25T11:34:51.955Z,72.20
2023-01-25T11:37:46.252Z,71.63
2023-01-25T11:40:22.514Z,71.29
2023-01-25T11:43:04.227Z,71.20
2023-01-25T11:46:02.814Z,71.15
2023-01-25T11:48:51.710Z,71.02
2023-01-25T11:51:27.326Z,70.80
2023-01-25T11:54:08.337Z,71.06
2023-01-25T11:56:50.516Z,71.52
2023-01-25T11:59:39.094Z,71.16
2023-01-25T12:02:33.017Z,71.23
2023-01-25T12:05:21.875Z,71.70
2023-01-25T12:08:02.008Z,71.79
2023-01-25T12:10:38.348Z,72.22
2023-01-25T12:13:17.814Z,72.05
2023-01-25T12:16:07.709Z,72.73
2023-01-25T12:19:07.052Z,72.92
2023-01-25T12:21:51.435Z,72.38
2023-01-25T12:24:37.594Z,72.17
2023-01-25T12:27:19.363Z,72.28
2023-01-25T12:29:52.231Z,72.43
2023-01-25T12:32:27.388Z,72.22
2023-01-25T12:35:12.761Z,71.93
2023-01-25T12:37:44.841Z,71.94
2023-01-25T12:40:17.993Z,71.75
2023-01-25T12:42:53.281Z,71.70
2023-01-25T12:45:26.606Z,71.74
2023-01-25T12:48:01.409Z,71.67
2023-01-25T12:50:35.979Z,71.70
2023-01-25T12:53:08.414Z,71.50
2023-01-25T12:55:36.396Z,71.57
2023-01-25T12:58:16.405Z,71.93
2023-01-25T13:00:53.398Z,71.95
2023-01-25T13:03:32.847Z,72.86
2023-01-25T13:06:10.675Z,72.41
2023-01-25T13:08:49.127Z,72.69
2023-01-25T13:11:23.773Z,72.31
2023-01-25T13:13:52.109Z,72.09
2023-01-25T13:16:45.277Z,72.11
2023-01-25T13:19:42.255Z,72.61
2023-01-25T13:22:11.745Z,72.43
2023-01-25T13:25:09.416Z,72.50
2023-01-25T13:27:37.956Z,72.81
2023-01-25T13:30:28.308Z,73.12
2023-01-25T13:32:59.312Z,72.75
2023-01-25T13:35:32.557Z,72.95
2023-01-25T13:38:04.947Z,73.39
2023-01-25T13:40:36.588Z,72.84
2023-01-25T13:43:07.561Z,72.66
2023-01-25T13:45:39.711Z,72.74
2023-01-25T13:48:16.699Z,72.25
2023-01-25T13:50:50.437Z,72.20
2023-01-25T13:53:23.982Z,73.19
2023-01-25T13:55:55.001Z,73.20
2023-01-25T13:58:26.272Z,73.26
2023-01-25T14:00:56.542Z,72.92
2023-01-25T14:03:28.227Z,72.56
2023-01-25T14:06:02.715Z,72.06
2023-01-25T14:08:32.425Z,72.13
2023-01-25T14:11:01.350Z,71.80
2023-01-25T14:13:33.699Z,71.72
2023-01-25T14:16:04.452Z,72.37
2023-01-25T14:18:33.585Z,72.12
2023-01-25T14:21:16.370Z,72.09
2023-01-25T14:23:45.269Z,72.32
2023-01-25T14:26:20.719Z,72.67
2023-01-25T14:28:59.620Z,72.97
2023-01-25T14:31:35.751Z,73.41
2023-01-25T14:34:06.157Z,73.35
2023-01-25T14:36:36.577Z,73.16
2023-01-25T14:39:18.409Z,73.36
2023-01-25T14:42:00.521Z,73.17
2023-01-25T14:44:30.887Z,73.74
2023-01-25T14:47:23.748Z,73.51
2023-01-25T14:49:51.844Z,73.31
2023-01-25T14:52:25.207Z,73.38
2023-01-25T14:54:55.543Z,73.05
2023-01-25T14:57:33.350Z,73.16
2023-01-25T15:00:04.971Z,72.82
2023-01-25T15:02:40.308Z,72.82
2023-01-25T15:05:19.726Z,73.33
2023-01-25T15:07:51.741Z,73.63
2023-01-25T15:10:24.166Z,73.25
2023-01-25T15:13:12.725Z,72.70
2023-01-25T15:15:52.871Z,72.77
2023-01-25T15:18:46.001Z,72.48
2023-01-25T15:21:15.698Z,72.61
2023-01-25T15:23:47.081Z,73.34
2023-01-25T15:26:19.932Z,73.40
2023-01-25T15:28:49.288Z,73.95
2023-01-25T15:31:19.922Z,74.27
2023-01-25T15:33:48.079Z,73.77
2023-01-25T15:36:17.722Z,74.00
2023-01-25T15:38:47.589Z,73.68
2023-01-25T15:41:18.413Z,73.52
2023-01-25T15:43:47.245Z,72.97
2023-01-25T15:46:19.014Z,72.94
2023-01-25T15:48:48.686Z,73.29
2023-01-25T15:51:16.807Z,73.15
2023-01-25T15:53:46.785Z,73.00
2023-01-25T15:56:19.143Z,73.39
2023-01-25T15:58:51.530Z,73.21
2023-01-25T16:01:19.936Z,73.40
2023-01-25T16:03:47.876Z,73.38
2023-01-25T16:06:31.641Z,73.22
2023-01-25T16:09:00.247Z,72.81
2023-01-25T16:11:30.019Z,72.52
2023-01-25T16:13:59.036Z,72.78
2023-01-25T16:16:27.147Z,73.22
2023-01-25T16:18:55.435Z,73.10
2023-01-25T16:21:23.625Z,72.61
2023-01-25T16:23:51.708Z,72.47
2023-01-25T16:26:22.700Z,72.20
2023-01-25T16:28:52.632Z,72.42
2023-01-25T16:31:31.742Z,73.25
2023-01-25T16:34:01.040Z,74.11
2023-01-25T16:36:29.672Z,73.93
2023-01-25T16:39:04.898Z,74.09
2023-01-25T16:41:33.872Z,74.57
2023-01-25T16:44:03.315Z,74.63
2023-01-25T16:46:31.733Z,74.65
2023-01-25T16:49:00.250Z,74.58
2023-01-25T16:51:29.494Z,73.86
2023-01-25T16:53:59.681Z,73.49
2023-01-25T16:56:29.292Z,73.88
2023-01-25T16:58:58.818Z,74.29
2023-01-25T17:01:28.466Z,74.59
2023-01-25T17:03:57.111Z,74.48
2023-01-25T17:06:27.093Z,75.26
2023-01-25T17:08:58.870Z,75.75
2023-01-25T17:11:27.695Z,75.66
2023-01-25T17:13:58.264Z,75.22
2023-01-25T17:16:29.720Z,75.28
2023-01-25T17:19:00.096Z,74.79
2023-01-25T17:21:28.700Z,74.69
2023-01-25T17:23:58.771Z,74.78
2023-01-25T17:26:27.944Z,75.14
2023-01-25T17:28:57.730Z,75.45
2023-01-25T17:31:28.084Z,75.02
2023-01-25T17:33:58.392Z,75.01
2023-01-25T17:36:27.356Z,74.63
2023-01-25T17:38:55.428Z,74.68
2023-01-25T17:41:25.285Z,74.83
2023-01-25T17:43:54.161Z,74.79
2023-01-25T17:46:25.523Z,75.15
2023-01-25T17:48:54.367Z,75.68
2023-01-25T17:51:25.158Z,75.74
2023-01-25T17:53:53.770Z,75.92
2023-01-25T17:56:22.026Z,76.44
2023-01-25T17:58:51.962Z,76.44
2023-01-25T18:01:21.862Z,75.90
2023-01-25T18:03:52.890Z,75.66
2023-01-25T18:06:25.050Z,75.69
2023-01-25T18:08:55.494Z,75.73
2023-01-25T18:11:26.013Z,75.25
2023-01-25T18:13:56.963Z,75.21
2023-01-25T18:16:27.321Z,75.25
2023-01-25T18:18:59.051Z,75.59
2023-01-25T18:21:31.684Z,75.85
2023-01-25T18:24:02.496Z,76.29
2023-01-25T18:26:33.380Z,76.27
2023-01-25T18:29:07.570Z,76.19
2023-01-25T18:31:37.158Z,76.92
2023-01-25T18:34:05.387Z,76.89
2023-01-25T18:36:34.835Z,76.56
2023-01-25T18:39:03.545Z,76.25
2023-01-25T18:41:31.611Z,76.10
2023-01-25T18:43:59.865Z,75.83
2023-01-25T18:46:28.269Z,76.13
2023-01-25T18:48:57.142Z,76.97
2023-01-25T18:51:26.239Z,77.27
2023-01-25T18:53:55.800Z,76.82
2023-01-25T18:56:23.977Z,77.17
2023-01-25T18:58:53.443Z,77.50
2023-01-25T19:01:23.686Z,77.19
2023-01-25T19:03:52.556Z,76.81
2023-01-25T19:06:22.693Z,76.54
2023-01-25T19:08:54.360Z,76.47
2023-01-25T19:11:24.885Z,76.87
2023-01-25T19:13:53.702Z,78.23
2023-01-25T19:16:24.573Z,78.23
2023-01-25T19:18:54.965Z,77.42
2023-01-25T19:21:25.170Z,77.46
2023-01-25T19:23:54.293Z,77.56
2023-01-25T19:26:26.167Z,77.46
2023-01-25T19:28:55.130Z,77.90
2023-01-25T19:31:25.341Z,77.84
2023-01-25T19:33:56.553Z,77.95
2023-01-25T19:36:25.424Z,77.64
2023-01-25T19:38:53.580Z,77.20
2023-01-25T19:41:25.628Z,77.61
2023-01-25T19:43:55.169Z,77.63
2023-01-25T19:46:25.387Z,77.30
2023-01-25T19:48:54.965Z,77.35
2023-01-25T19:51:25.063Z,77.21
2023-01-25T19:53:58.472Z,77.60
2023-01-25T19:56:28.384Z,77.63
2023-01-25T19:58:56.935Z,77.25
2023-01-25T20:01:29.353Z,77.79
2023-01-25T20:03:59.619Z,77.72
2023-01-25T20:06:28.151Z,77.95
2023-01-25T20:08:57.511Z,78.07
2023-01-25T20:11:30.001Z,77.80
2023-01-25T20:14:00.404Z,77.59
2023-01-25T20:16:30.748Z,77.58
2023-01-25T20:18:59.681Z,77.58
2023-01-25T20:21:29.687Z,77.67
2023-01-25T20:24:01.010Z,77.67
2023-01-25T20:26:32.501Z,77.89
2023-01-25T20:29:01.440Z,77.86
2023-01-25T20:31:33.551Z,77.70
2023-01-25T20:34:05.118Z,77.93
2023-01-25T20:36:35.829Z,77.50
2023-01-25T20:39:05.493Z,77.46
2023-01-25T20:41:35.851Z,77.43
2023-01-25T20:44:08.831Z,77.66
2023-01-25T20:46:38.953Z,77.32
2023-01-25T20:49:09.614Z,76.96
2023-01-25T20:51:38.536Z,77.06
2023-01-25T20:54:07.110Z,77.01
2023-01-25T20:56:41.128Z,76.76
2023-01-25T20:59:10.280Z,76.18
2023-01-25T21:01:38.622Z,76.40
2023-01-25T21:04:09.589Z,76.53
2023-01-25T21:06:38.849Z,75.90
2023-01-25T21:09:07.684Z,76.48
2023-01-25T21:11:37.542Z,76.88
2023-01-25T21:14:06.325Z,76.88
2023-01-25T21:16:34.434Z,76.83
2023-01-25T21:19:06.621Z,77.03
2023-01-25T21:21:36.868Z,77.02
2023-01-25T21:24:05.929Z,76.33
2023-01-25T21:26:35.929Z,76.88
2023-01-25T21:29:07.334Z,77.12
2023-01-25T21:31:37.315Z,77.34
2023-01-25T21:34:08.371Z,77.29
2023-01-25T21:36:36.395Z,77.39
2023-01-25T21:39:05.696Z,77.33
2023-01-25T21:41:35.060Z,77.52
2023-01-25T21:44:21.688Z,77.43
2023-01-25T21:50:02.773Z,77.55
2023-01-25T21:52:31.702Z,77.41
2023-01-25T21:54:59.755Z,77.31
2023-01-25T21:57:27.910Z,77.09
2023-01-25T21:59:56.091Z,76.91
2023-01-25T22:02:25.588Z,76.89
2023-01-25T22:04:53.819Z,76.79
2023-01-25T22:07:22.297Z,76.81
2023-01-25T22:09:51.652Z,76.54
2023-01-25T22:12:19.684Z,76.73
2023-01-25T22:14:47.683Z,76.63
2023-01-25T22:17:15.664Z,76.51
2023-01-25T22:19:45.690Z,76.58
2023-01-25T22:22:23.433Z,76.88
2023-01-25T22:24:54.008Z,77.08
2023-01-25T22:27:33.357Z,76.74
2023-01-25T22:30:02.271Z,77.55
2023-01-25T22:32:31.207Z,77.12
2023-01-25T22:35:00.703Z,76.96
2023-01-25T22:37:28.808Z,76.98
2023-01-25T22:39:58.498Z,76.67
2023-01-25T22:42:26.585Z,76.87
2023-01-25T22:44:54.839Z,77.43
2023-01-25T22:47:22.838Z,77.25
2023-01-25T22:49:50.781Z,77.37
2023-01-25T22:52:20.204Z,77.23
2023-01-25T22:54:50.190Z,76.99
2023-01-25T22:57:18.277Z,76.99
2023-01-25T22:59:46.265Z,76.97
2023-01-25T23:02:14.155Z,76.69
2023-01-25T23:04:42.121Z,76.79
2023-01-25T23:07:18.944Z,76.66
2023-01-25T23:09:51.569Z,76.60
2023-01-25T23:12:20.028Z,77.00
2023-01-25T23:14:54.336Z,77.15
2023-01-25T23:17:42.623Z,77.49
2023-01-25T23:20:15.130Z,77.06
2023-01-25T23:22:43.436Z,77.19
2023-01-25T23:25:14.173Z,77.00
2023-01-25T23:27:42.425Z,76.90
2023-01-25T23:30:12.641Z,76.61
2023-01-25T23:32:49.222Z,76.62
2023-01-25T23:35:19.357Z,76.63
2023-01-25T23:37:48.546Z,76.56
2023-01-25T23:40:19.024Z,76.58
2023-01-25T23:42:47.610Z,77.00
2023-01-25T23:45:16.506Z,76.55
2023-01-25T23:47:44.461Z,76.63
2023-01-25T23:50:13.807Z,76.72
2023-01-25T23:52:41.993Z,77.30
2023-01-25T23:55:11.077Z,77.22
2023-01-25T23:57:40.404Z,77.10
